Greeley, IA (52050)

3:38 PM CST on March 03, 2015 (GMT -0600)
IADOT Manchester (US 20) | Change Station
CLOSE
Current Station
Personal Weather Station
Location: Manchester, IA
Elevation: 1013 ft
Nearby Weather Stations

Elev 1013 ft 42.47 °N, 91.45 °W | Updated 37 minutes ago

Overcast
Overcast
32 °F
Feels Like 26 °F
N
7
Wind Variable Wind from NW
Gusts 12.0 mph

Today
High -- | Low -- °F
--% Chance of Precip.
Yesterday
High -- | Low -- °F
Precip. -- in
6:37 AM 5:57 PM
Waxing Gibbous, 97% visible
Pressure 29.71 in
Visibility 10.0 miles
Clouds Overcast 2200 ft
Windchill 26 °F
Dew Point 26 °F
Humidity 77%
Rainfall -999.00 in
Snow Depth Not available.
UV 1 out of 12
Pollen .50 out of 12
Air Quality Not available.
Flu Activity Not available.
METAR KMXO 032115Z AUTO 30017G36KT 10SM OVC022 00/M02 A2971 RMK AO2

More Conditions Fewer Conditions

Pressure 29.71 in
Visibility 10.0 miles
Clouds Overcast 2200 ft
Windchill 26 °F
Dew Point 26 °F
Humidity 77%
Rainfall -999.00 in
Snow Depth Not available.
UV 1 out of 12
Pollen .50 out of 12
Air Quality Not available.
Flu Activity Not available.
METAR KMXO 032115Z AUTO 30017G36KT 10SM OVC022 00/M02 A2971 RMK AO2

More Conditions Fewer Conditions

10-Day Weather Forecast

Almanac

Astronomy

Mar. 03, 2015 Rise Set
Actual Time
Civil Twilight
Nautical Twilight
Astronomical Twilight
Moon
Length of Visible Light
Length of Day
Tomorrow will be .
, % of the Moon is Illuminated

Today's Extremes

State Highs State Lows

Community

WunderPhotos

Upload Photos

1,802,261 photos uploaded!

WunderBlogs® & News

Nearby

Air Quality

  Air Quality AQ Index Pollutant
Not available.

Snow Depth

Station Depth Elevation

Earthquake Activity

City Distance Mag. Time & Date
Minimum magnitude displayed is 2.5.

Coastal Water Temperatures

Place Temperature

Nearby Weather Stations